createdAt,value
2019-01-15T00:04:40.960Z,99.99
2019-01-15T00:15:41.777Z,99.99
2019-01-15T00:26:46.638Z,99.99
2019-01-15T00:37:47.207Z,99.99
2019-01-15T00:48:47.697Z,99.99
2019-01-15T00:59:41.925Z,99.99
2019-01-15T01:10:41.911Z,99.99
2019-01-15T01:21:46.159Z,99.99
2019-01-15T01:32:49.379Z,99.99
2019-01-15T01:43:46.876Z,99.99
2019-01-15T01:54:51.456Z,99.99
2019-01-15T02:05:50.361Z,99.99
2019-01-15T02:16:49.414Z,99.99
2019-01-15T02:27:54.035Z,99.99
2019-01-15T02:38:53.925Z,99.99
2019-01-15T02:49:54.871Z,99.99
2019-01-15T03:00:59.120Z,99.99
2019-01-15T03:12:03.803Z,99.99
2019-01-15T03:23:08.642Z,99.99
2019-01-15T03:34:08.408Z,99.99
2019-01-15T03:44:55.408Z,99.99
2019-01-15T03:55:55.568Z,99.99
2019-01-15T04:06:57.032Z,99.99
2019-01-15T04:17:57.905Z,99.99
2019-01-15T04:28:59.436Z,99.99
2019-01-15T04:40:00.147Z,99.99
2019-01-15T04:51:01.640Z,99.99
2019-01-15T05:02:06.424Z,99.99
2019-01-15T05:13:07.048Z,99.99
2019-01-15T05:24:09.393Z,99.99
2019-01-15T05:35:10.415Z,99.99
2019-01-15T05:46:10.570Z,99.99
2019-01-15T05:57:15.781Z,99.99
2019-01-15T06:08:15.751Z,99.99
2019-01-15T06:19:21.209Z,99.99
2019-01-15T06:30:22.418Z,99.99
2019-01-15T06:41:21.028Z,99.99
2019-01-15T06:52:25.980Z,99.99
2019-01-15T07:03:27.960Z,99.99
2019-01-15T07:14:29.710Z,99.99
2019-01-15T07:25:30.565Z,99.99
2019-01-15T07:36:36.218Z,99.99
2019-01-15T07:47:41.374Z,99.99
2019-01-15T07:58:42.104Z,99.99
2019-01-15T08:09:46.642Z,99.99
2019-01-15T08:20:48.923Z,99.99
2019-01-15T08:31:48.251Z,99.99
2019-01-15T08:42:53.341Z,99.99
2019-01-15T08:53:52.026Z,99.99
2019-01-15T09:04:31.108Z,99.99
2019-01-15T09:15:33.406Z,99.99
2019-01-15T09:26:37.218Z,99.99
2019-01-15T09:37:35.621Z,99.99
2019-01-15T09:48:22.946Z,99.99
2019-01-15T09:59:21.630Z,99.99
2019-01-15T10:10:22.215Z,99.99
2019-01-15T10:21:23.839Z,99.99
2019-01-15T10:32:28.552Z,99.99
2019-01-15T10:43:32.231Z,98.11
2019-01-15T10:54:35.708Z,96.21
2019-01-15T11:05:38.281Z,94.05
2019-01-15T11:16:36.133Z,91.06
2019-01-15T11:27:38.395Z,88.88
2019-01-15T11:38:38.497Z,91.55
2019-01-15T11:49:35.552Z,89.90
2019-01-15T12:00:38.686Z,92.00
2019-01-15T12:11:41.515Z,87.05
2019-01-15T12:22:36.959Z,87.76
2019-01-15T12:33:35.370Z,86.24
2019-01-15T12:44:31.758Z,85.95
2019-01-15T12:55:34.570Z,83.51
2019-01-15T13:06:36.713Z,81.87
2019-01-15T13:17:39.206Z,81.43
2019-01-15T13:28:22.931Z,80.81
2019-01-15T13:39:26.570Z,79.11
2019-01-15T13:50:25.305Z,79.00
2019-01-15T14:01:13.971Z,80.04
2019-01-15T14:12:03.884Z,80.65
2019-01-15T14:23:06.434Z,81.88
2019-01-15T14:33:39.087Z,80.90
2019-01-15T14:44:37.116Z,80.58
2019-01-15T14:55:34.852Z,82.13
2019-01-15T15:06:25.338Z,83.40
2019-01-15T15:17:20.541Z,83.54
2019-01-15T15:28:20.200Z,84.81
2019-01-15T15:39:22.701Z,95.52
2019-01-15T15:50:18.134Z,99.99
2019-01-15T16:01:15.135Z,98.23
2019-01-15T16:12:12.334Z,99.99
2019-01-15T16:23:09.405Z,99.99
2019-01-15T16:34:10.182Z,99.99
2019-01-15T16:45:01.599Z,99.99
2019-01-15T16:55:54.496Z,99.99
2019-01-15T17:06:30.182Z,99.99
2019-01-15T17:17:25.326Z,99.99
2019-01-15T17:28:17.400Z,99.99
2019-01-15T17:39:16.269Z,99.99
2019-01-15T17:50:00.990Z,99.99
2019-01-15T18:00:43.319Z,99.99
2019-01-15T18:11:40.427Z,99.99
2019-01-15T18:22:30.169Z,99.99
2019-01-15T18:33:28.463Z,99.99
2019-01-15T18:44:19.987Z,99.99
2019-01-15T18:55:06.700Z,99.99
2019-01-15T19:05:42.074Z,99.99
2019-01-15T19:16:29.380Z,99.99
2019-01-15T19:27:07.399Z,99.99
2019-01-15T19:37:51.029Z,99.99
2019-01-15T19:48:40.519Z,99.99
2019-01-15T19:59:32.832Z,99.99
2019-01-15T20:10:08.178Z,99.99
2019-01-15T20:20:55.172Z,99.99
2019-01-15T20:31:47.308Z,99.99
2019-01-15T20:42:23.161Z,99.99
2019-01-15T20:53:04.850Z,99.99
2019-01-15T21:03:44.702Z,99.99
2019-01-15T21:14:20.435Z,99.99
2019-01-15T21:25:15.714Z,99.99
2019-01-15T21:36:11.305Z,99.99
2019-01-15T21:47:09.572Z,99.99
2019-01-15T21:58:03.299Z,99.99
2019-01-15T22:08:44.734Z,99.99
2019-01-15T22:19:33.507Z,99.99
2019-01-15T22:30:23.778Z,99.99
2019-01-15T22:41:23.867Z,99.99
2019-01-15T22:52:20.469Z,99.99
2019-01-15T23:03:21.009Z,99.99
2019-01-15T23:14:20.409Z,99.99
2019-01-15T23:25:06.354Z,99.99
2019-01-15T23:36:04.845Z,99.99
2019-01-15T23:47:02.737Z,99.99
2019-01-15T23:57:59.955Z,99.99
